Time;durP1;ratioP1;P1;durP2;ratioP2;P2;SDS_P1;SDS_P2;PMS_P1;PMS_P2;Temp;Humidity;BMP_temperature;BMP_pressure;BME280_temperature;BME280_humidity;BME280_pressure;Samples;Min_cycle;Max_cycle;Signal;HPM_P1;HPM_P2
2023/04/22 02:02:18;;;;;;;14.35;7.78;;;;;;;;;;4369677;28;20374;-72
2023/04/22 02:04:44;;;;;;;21.27;6.68;;;;;;;;;;4284002;33;20056;-72
2023/04/22 02:07:10;;;;;;;25.90;7.60;;;;;;;;;;4287376;33;20177;-73
2023/04/22 02:09:37;;;;;;;33.13;6.87;;;;;;;;;;4288758;33;20784;-72
2023/04/22 02:12:03;;;;;;;21.50;7.35;;;;;;;;;;4296016;33;20048;-72
2023/04/22 02:14:29;;;;;;;16.77;7.95;;;;;;;;;;4295668;33;20433;-71
2023/04/22 02:17:02;;;;;;;34.92;7.87;;;;;;;;;;4294328;33;20462;-72
2023/04/22 02:19:28;;;;;;;19.12;8.45;;;;;;;;;;4295878;33;20078;-74
2023/04/22 02:21:54;;;;;;;17.62;7.20;;;;;;;;;;4294537;33;20112;-73
2023/04/22 02:24:21;;;;;;;20.23;7.32;;;;;;;;;;4291711;33;20063;-71
2023/04/22 02:26:47;;;;;;;20.05;7.25;;;;;;;;;;4291945;33;20408;-73
2023/04/22 02:29:15;;;;;;;15.50;7.70;;;;;;;;;;4290958;33;20045;-73
2023/04/22 02:31:41;;;;;;;29.27;7.80;;;;;;;;;;4293300;33;20089;-72
2023/04/22 02:34:07;;;;;;;20.75;7.12;;;;;;;;;;4292875;33;20197;-73
2023/04/22 02:36:33;;;;;;;29.23;8.23;;;;;;;;;;4293341;33;20041;-72
2023/04/22 02:39:02;;;;;;;16.40;8.55;;;;;;;;;;4293248;33;20065;-72
2023/04/22 02:41:28;;;;;;;17.58;7.43;;;;;;;;;;4292178;33;20041;-72
2023/04/22 02:43:54;;;;;;;25.60;7.55;;;;;;;;;;4293609;33;20041;-72
2023/04/22 02:46:21;;;;;;;25.17;8.05;;;;;;;;;;4296225;33;20209;-72
2023/04/22 02:48:48;;;;;;;13.95;7.15;;;;;;;;;;4295908;33;20510;-75
2023/04/22 02:51:14;;;;;;;29.05;7.47;;;;;;;;;;4294531;33;20059;-73
2023/04/22 02:53:40;;;;;;;25.98;8.27;;;;;;;;;;4295996;33;21081;-73
2023/04/22 02:56:07;;;;;;;23.60;8.43;;;;;;;;;;4293794;33;20040;-72
2023/04/22 02:58:33;;;;;;;39.15;9.73;;;;;;;;;;4291482;33;20057;-72
2023/04/22 03:01:00;;;;;;;18.95;8.07;;;;;;;;;;4284318;33;20049;-72
2023/04/22 03:03:26;;;;;;;18.15;8.07;;;;;;;;;;4265787;33;20067;-73
2023/04/22 03:05:52;;;;;;;33.38;10.45;;;;;;;;;;4277054;33;20045;-72
2023/04/22 03:08:19;;;;;;;26.80;8.93;;;;;;;;;;4273234;33;20061;-73
2023/04/22 03:10:45;;;;;;;38.28;9.23;;;;;;;;;;4281395;33;20186;-72
2023/04/22 03:13:12;;;;;;;33.83;8.57;;;;;;;;;;4280398;33;20060;-72
2023/04/22 03:15:39;;;;;;;26.60;9.05;;;;;;;;;;4278841;33;20049;-75
2023/04/22 03:18:06;;;;;;;23.67;9.15;;;;;;;;;;4280609;33;20052;-72
2023/04/22 03:20:32;;;;;;;24.35;8.13;;;;;;;;;;4280051;33;20026;-72
2023/04/22 03:22:59;;;;;;;26.08;10.82;;;;;;;;;;4280251;33;20045;-72
2023/04/22 03:25:25;;;;;;;21.67;8.65;;;;;;;;;;4247720;33;20049;-72
2023/04/22 03:27:51;;;;;;;25.37;8.75;;;;;;;;;;4236856;33;20038;-76
2023/04/22 03:30:18;;;;;;;28.95;9.98;;;;;;;;;;4238250;33;20076;-72
2023/04/22 03:32:45;;;;;;;28.52;8.75;;;;;;;;;;4238566;33;20046;-73
2023/04/22 03:35:12;;;;;;;24.87;8.68;;;;;;;;;;4206076;34;20082;-72
2023/04/22 03:37:38;;;;;;;25.12;9.48;;;;;;;;;;4208889;34;20043;-71
2023/04/22 03:40:06;;;;;;;21.58;9.10;;;;;;;;;;4206960;34;20054;-72
2023/04/22 03:42:33;;;;;;;36.15;9.27;;;;;;;;;;4210341;34;20051;-71
2023/04/22 03:44:59;;;;;;;40.75;8.98;;;;;;;;;;4209021;34;20054;-73
2023/04/22 03:47:29;;;;;;;25.98;8.35;;;;;;;;;;4221308;33;20108;-73
2023/04/22 03:49:56;;;;;;;26.48;9.65;;;;;;;;;;4221693;33;20143;-78
2023/04/22 03:52:23;;;;;;;27.83;9.10;;;;;;;;;;4223606;33;20466;-71
2023/04/22 03:54:50;;;;;;;33.95;11.68;;;;;;;;;;4223255;33;20059;-72
2023/04/22 03:57:17;;;;;;;33.63;9.70;;;;;;;;;;4246263;33;20050;-73
2023/04/22 03:59:44;;;;;;;30.98;9.88;;;;;;;;;;4252212;33;20045;-71
2023/04/22 04:02:10;;;;;;;22.80;9.73;;;;;;;;;;4249041;33;20045;-72
2023/04/22 04:04:37;;;;;;;19.27;8.70;;;;;;;;;;4252179;33;21108;-72
2023/04/22 04:07:03;;;;;;;25.85;9.95;;;;;;;;;;4252272;33;20369;-71
2023/04/22 04:09:29;;;;;;;20.25;10.63;;;;;;;;;;4252095;33;20085;-71
2023/04/22 04:11:56;;;;;;;28.95;11.45;;;;;;;;;;4252266;33;20057;-73
2023/04/22 04:14:26;;;;;;;25.17;9.25;;;;;;;;;;4250648;33;20075;-72
2023/04/22 04:16:53;;;;;;;22.00;8.80;;;;;;;;;;4262843;33;20205;-72
2023/04/22 04:19:20;;;;;;;21.70;9.10;;;;;;;;;;4266166;33;20122;-71
2023/04/22 04:21:46;;;;;;;16.60;7.95;;;;;;;;;;4278121;33;20045;-71
2023/04/22 04:24:12;;;;;;;21.92;9.38;;;;;;;;;;4279284;33;20092;-75
2023/04/22 04:26:40;;;;;;;18.70;8.20;;;;;;;;;;4278975;33;20473;-72
2023/04/22 04:29:07;;;;;;;24.20;9.40;;;;;;;;;;4292597;33;20049;-72
2023/04/22 04:31:35;;;;;;;27.95;9.75;;;;;;;;;;4297024;33;20049;-72
2023/04/22 04:34:01;;;;;;;21.95;9.32;;;;;;;;;;4296175;33;20036;-72
2023/04/22 04:36:28;;;;;;;20.15;8.50;;;;;;;;;;4294883;33;20389;-75
2023/04/22 04:38:55;;;;;;;14.05;8.25;;;;;;;;;;4296976;33;20057;-72
2023/04/22 04:41:30;;;;;;;17.70;7.20;;;;;;;;;;4296196;33;20048;-71
2023/04/22 04:43:59;;;;;;;20.42;9.63;;;;;;;;;;4296369;33;20053;-72
2023/04/22 04:46:28;;;;;;;18.40;8.77;;;;;;;;;;4263728;33;20033;-78
2023/04/22 04:48:56;;;;;;;16.37;9.43;;;;;;;;;;4265919;33;20046;-73
2023/04/22 04:51:24;;;;;;;23.15;8.57;;;;;;;;;;4264224;33;20045;-71
2023/04/22 04:53:50;;;;;;;14.50;7.87;;;;;;;;;;4265820;33;20037;-74
2023/04/22 04:56:17;;;;;;;19.35;8.75;;;;;;;;;;4265046;33;20038;-78
2023/04/22 04:58:43;;;;;;;17.37;9.20;;;;;;;;;;4262700;33;20498;-71
2023/04/22 05:01:10;;;;;;;20.40;8.13;;;;;;;;;;4268769;33;20071;-72
2023/04/22 05:03:36;;;;;;;18.58;7.43;;;;;;;;;;4265155;33;20030;-72
2023/04/22 05:06:03;;;;;;;12.85;7.85;;;;;;;;;;4264618;33;20050;-72
2023/04/22 05:08:29;;;;;;;15.88;8.00;;;;;;;;;;4247736;33;20069;-76
2023/04/22 05:10:57;;;;;;;25.90;7.95;;;;;;;;;;4242559;33;20080;-76
2023/04/22 05:13:23;;;;;;;19.83;7.85;;;;;;;;;;4241197;33;20492;-71
2023/04/22 05:15:52;;;;;;;11.18;6.30;;;;;;;;;;4239837;33;20094;-71
2023/04/22 05:18:18;;;;;;;15.23;7.25;;;;;;;;;;4236106;33;20052;-71
2023/04/22 05:20:45;;;;;;;16.23;6.37;;;;;;;;;;4235999;33;20076;-75
2023/04/22 05:23:11;;;;;;;12.60;6.18;;;;;;;;;;4236734;33;20518;-75
2023/04/22 05:25:38;;;;;;;11.98;6.50;;;;;;;;;;4250013;33;20070;-74
2023/04/22 05:28:04;;;;;;;24.45;6.78;;;;;;;;;;4250001;33;20090;-71
2023/04/22 05:30:33;;;;;;;17.62;6.53;;;;;;;;;;4233020;33;20184;-72
2023/04/22 05:33:00;;;;;;;21.37;7.97;;;;;;;;;;4234924;33;20058;-79
2023/04/22 05:35:27;;;;;;;22.55;8.20;;;;;;;;;;4217646;34;20063;-71
2023/04/22 05:37:53;;;;;;;20.60;7.80;;;;;;;;;;4209655;34;20043;-73
2023/04/22 05:40:22;;;;;;;19.75;7.55;;;;;;;;;;4219868;33;20058;-73
2023/04/22 05:42:48;;;;;;;16.85;6.43;;;;;;;;;;4221422;33;20073;-77
2023/04/22 05:45:16;;;;;;;12.60;5.85;;;;;;;;;;4224508;33;20039;-72
2023/04/22 05:47:42;;;;;;;10.10;6.15;;;;;;;;;;4238218;33;20534;-71
2023/04/22 05:50:09;;;;;;;11.65;5.25;;;;;;;;;;4248832;33;20093;-74
2023/04/22 05:52:39;;;;;;;21.17;4.70;;;;;;;;;;4247434;33;20192;-71
2023/04/22 05:55:06;;;;;;;13.30;4.30;;;;;;;;;;4242102;33;20481;-73
2023/04/22 05:57:32;;;;;;;9.00;4.75;;;;;;;;;;4241903;33;20056;-69
2023/04/22 06:00:00;;;;;;;9.48;5.30;;;;;;;;;;4243813;33;20086;-71
2023/04/22 06:02:26;;;;;;;12.23;5.05;;;;;;;;;;4229696;33;20031;-71
2023/04/22 06:04:52;;;;;;;7.35;4.85;;;;;;;;;;4229850;33;20424;-71
2023/04/22 06:07:20;;;;;;;9.25;4.68;;;;;;;;;;4263487;33;20075;-72
2023/04/22 06:09:46;;;;;;;17.42;5.10;;;;;;;;;;4271939;33;20441;-71
2023/04/22 06:12:14;;;;;;;25.42;12.20;;;;;;;;;;4271270;33;20046;-70
2023/04/22 06:14:40;;;;;;;18.90;9.98;;;;;;;;;;4272621;33;20046;-74
2023/04/22 06:17:08;;;;;;;13.50;6.43;;;;;;;;;;4271464;33;20415;-72
2023/04/22 06:19:34;;;;;;;8.25;5.78;;;;;;;;;;4263019;33;20046;-71
2023/04/22 06:22:01;;;;;;;9.85;5.20;;;;;;;;;;4266411;33;20107;-74
2023/04/22 06:24:27;;;;;;;9.15;4.47;;;;;;;;;;4250779;33;20121;-73
2023/04/22 06:26:54;;;;;;;9.15;3.90;;;;;;;;;;4268166;33;20076;-73
2023/04/22 06:29:20;;;;;;;13.43;3.05;;;;;;;;;;4263168;33;20034;-72
2023/04/22 06:31:47;;;;;;;23.20;4.05;;;;;;;;;;4267283;33;20045;-72
2023/04/22 06:34:13;;;;;;;6.70;3.90;;;;;;;;;;4267467;33;20043;-72
2023/04/22 06:36:39;;;;;;;5.32;3.25;;;;;;;;;;4266542;33;20499;-71
2023/04/22 06:39:06;;;;;;;9.65;3.67;;;;;;;;;;4266215;33;20059;-71
2023/04/22 06:41:33;;;;;;;9.52;4.55;;;;;;;;;;4263589;33;20237;-72
2023/04/22 06:44:00;;;;;;;8.00;3.40;;;;;;;;;;4266039;33;20411;-71
2023/04/22 06:46:29;;;;;;;8.57;3.53;;;;;;;;;;4265348;33;20089;-71
2023/04/22 06:48:58;;;;;;;8.68;3.85;;;;;;;;;;4265081;33;20042;-72
2023/04/22 06:51:25;;;;;;;6.95;2.92;;;;;;;;;;4263645;33;20052;-78
2023/04/22 06:53:51;;;;;;;8.75;2.72;;;;;;;;;;4266373;33;20477;-72
2023/04/22 06:56:18;;;;;;;3.58;2.83;;;;;;;;;;4268541;33;20504;-72
2023/04/22 06:58:44;;;;;;;6.50;3.20;;;;;;;;;;4280035;33;20055;-72
2023/04/22 07:01:10;;;;;;;7.47;3.15;;;;;;;;;;4277151;33;20041;-72
2023/04/22 07:03:37;;;;;;;12.25;3.28;;;;;;;;;;4279012;33;20443;-71
2023/04/22 07:06:04;;;;;;;7.05;3.17;;;;;;;;;;4280078;33;20075;-72
2023/04/22 07:08:30;;;;;;;7.75;2.92;;;;;;;;;;4264781;33;20055;-70
2023/04/22 07:10:56;;;;;;;6.45;4.00;;;;;;;;;;4269636;33;20072;-72
2023/04/22 07:13:22;;;;;;;8.18;2.85;;;;;;;;;;4274378;33;20553;-73
2023/04/22 07:15:49;;;;;;;6.95;4.07;;;;;;;;;;4275486;33;20146;-73
2023/04/22 07:18:15;;;;;;;7.05;3.08;;;;;;;;;;4280103;33;20063;-73
2023/04/22 07:20:41;;;;;;;6.00;3.90;;;;;;;;;;4280982;33;20032;-71
2023/04/22 07:23:07;;;;;;;4.25;3.22;;;;;;;;;;4279463;33;20060;-70
2023/04/22 07:25:33;;;;;;;11.93;3.35;;;;;;;;;;4276450;33;20142;-75
2023/04/22 07:27:59;;;;;;;10.23;4.35;;;;;;;;;;4244242;33;20100;-71
2023/04/22 07:30:25;;;;;;;4.72;3.15;;;;;;;;;;4249723;33;20427;-71
2023/04/22 07:32:52;;;;;;;13.95;3.85;;;;;;;;;;4261688;33;20058;-72
2023/04/22 07:35:18;;;;;;;9.10;3.17;;;;;;;;;;4262510;33;20060;-71
2023/04/22 07:37:44;;;;;;;13.02;2.58;;;;;;;;;;4263450;33;20034;-78
2023/04/22 07:40:12;;;;;;;7.22;3.42;;;;;;;;;;4274802;33;20053;-72
2023/04/22 07:42:38;;;;;;;6.05;3.50;;;;;;;;;;4280168;33;20079;-71
2023/04/22 07:45:05;;;;;;;13.43;3.50;;;;;;;;;;4279244;33;20067;-72
2023/04/22 07:47:31;;;;;;;4.95;2.58;;;;;;;;;;4277983;33;20208;-71
2023/04/22 07:49:58;;;;;;;5.45;3.90;;;;;;;;;;4276349;33;20415;-77
2023/04/22 07:52:24;;;;;;;11.27;3.50;;;;;;;;;;4272643;33;20369;-72
2023/04/22 07:54:50;;;;;;;11.32;3.72;;;;;;;;;;4281142;33;20105;-72
2023/04/22 07:57:16;;;;;;;12.95;4.07;;;;;;;;;;4284043;33;20427;-72
2023/04/22 07:59:42;;;;;;;9.90;3.45;;;;;;;;;;4281263;33;20061;-72
2023/04/22 08:02:09;;;;;;;8.90;3.20;;;;;;;;;;4286372;33;20054;-73
2023/04/22 08:04:36;;;;;;;8.18;3.83;;;;;;;;;;4286974;33;20045;-72
2023/04/22 08:07:02;;;;;;;6.78;3.58;;;;;;;;;;4279501;33;20051;-72
2023/04/22 08:09:29;;;;;;;12.32;5.25;;;;;;;;;;4271062;33;20522;-73
2023/04/22 08:11:55;;;;;;;8.80;3.10;;;;;;;;;;4270662;33;20143;-72
2023/04/22 08:14:21;;;;;;;4.18;2.78;;;;;;;;;;4274294;33;20100;-74
2023/04/22 08:16:47;;;;;;;3.62;2.47;;;;;;;;;;4275818;33;20088;-74
2023/04/22 08:19:14;;;;;;;11.00;2.85;;;;;;;;;;4266349;33;20030;-72
2023/04/22 08:21:40;;;;;;;7.93;2.70;;;;;;;;;;4262870;33;20113;-71
2023/04/22 08:24:06;;;;;;;3.75;2.55;;;;;;;;;;4263413;33;20062;-75
2023/04/22 08:26:32;;;;;;;4.10;2.28;;;;;;;;;;4274815;33;20450;-71
2023/04/22 08:28:59;;;;;;;8.25;2.50;;;;;;;;;;4278915;33;20424;-71
2023/04/22 08:31:25;;;;;;;9.68;3.08;;;;;;;;;;4276912;33;20162;-72
2023/04/22 08:33:51;;;;;;;4.57;2.47;;;;;;;;;;4268215;33;20067;-70
2023/04/22 08:36:20;;;;;;;7.35;3.03;;;;;;;;;;4275358;33;20067;-77
2023/04/22 08:38:46;;;;;;;4.68;3.03;;;;;;;;;;4260841;33;20042;-75
2023/04/22 08:41:13;;;;;;;3.87;2.83;;;;;;;;;;4261649;33;20092;-72
2023/04/22 08:43:40;;;;;;;6.82;2.90;;;;;;;;;;4264391;33;20122;-72
2023/04/22 08:46:06;;;;;;;7.18;2.90;;;;;;;;;;4261251;33;20053;-71
2023/04/22 08:48:32;;;;;;;2.58;2.33;;;;;;;;;;4261765;33;20071;-75
2023/04/22 08:50:59;;;;;;;9.95;3.00;;;;;;;;;;4263106;33;20038;-71
2023/04/22 08:53:25;;;;;;;3.58;3.28;;;;;;;;;;4261692;33;20449;-71
2023/04/22 08:55:54;;;;;;;5.50;3.22;;;;;;;;;;4263292;33;20063;-71
2023/04/22 08:58:21;;;;;;;5.25;2.97;;;;;;;;;;4262839;33;20472;-73
2023/04/22 09:00:47;;;;;;;7.47;3.55;;;;;;;;;;4262284;33;20042;-71
2023/04/22 09:03:14;;;;;;;4.90;3.37;;;;;;;;;;4263363;33;20121;-71
2023/04/22 09:05:41;;;;;;;10.95;3.78;;;;;;;;;;4264749;33;20075;-71
2023/04/22 09:08:09;;;;;;;6.28;3.50;;;;;;;;;;4264632;33;20059;-71
2023/04/22 09:10:36;;;;;;;3.60;2.87;;;;;;;;;;4288380;33;20045;-77
2023/04/22 09:13:04;;;;;;;7.37;2.95;;;;;;;;;;4296383;33;20050;-70
2023/04/22 09:15:30;;;;;;;6.22;2.47;;;;;;;;;;4291754;33;20026;-72
2023/04/22 09:17:57;;;;;;;2.62;2.42;;;;;;;;;;4287743;33;20091;-72
2023/04/22 09:20:27;;;;;;;3.62;2.55;;;;;;;;;;4291327;33;20063;-76
2023/04/22 09:22:54;;;;;;;2.83;2.30;;;;;;;;;;4283440;33;20403;-71
2023/04/22 09:25:21;;;;;;;7.00;2.92;;;;;;;;;;4286556;33;20048;-71
2023/04/22 09:27:57;;;;;;;5.90;2.47;;;;;;;;;;4292871;33;20045;-71
2023/04/22 09:30:25;;;;;;;6.32;2.80;;;;;;;;;;4291343;33;20038;-76
2023/04/22 09:32:53;;;;;;;6.93;2.60;;;;;;;;;;4292100;33;20066;-71
2023/04/22 09:35:24;;;;;;;6.03;2.55;;;;;;;;;;4281514;33;20118;-71
2023/04/22 09:37:51;;;;;;;;;;;;;;;;;;4292730;33;20079;-72
2023/04/22 09:40:17;;;;;;;4.43;2.20;;;;;;;;;;4291969;33;19955;-72
2023/04/22 09:42:47;;;;;;;9.55;2.53;;;;;;;;;;4251063;33;20056;-70
2023/04/22 09:45:23;;;;;;;5.90;2.53;;;;;;;;;;4249909;33;20042;-72
2023/04/22 09:47:49;;;;;;;4.90;2.53;;;;;;;;;;4248889;33;20107;-73
2023/04/22 09:50:18;;;;;;;4.87;2.70;;;;;;;;;;4249509;33;20072;-72
2023/04/22 09:52:44;;;;;;;3.78;2.28;;;;;;;;;;4250948;33;20417;-71
2023/04/22 09:55:10;;;;;;;8.00;2.92;;;;;;;;;;4250750;33;20049;-71
2023/04/22 09:57:38;;;;;;;7.57;2.70;;;;;;;;;;4250807;33;20381;-72
2023/04/22 10:00:06;;;;;;;3.40;2.60;;;;;;;;;;4251239;33;20405;-77
2023/04/22 10:02:32;;;;;;;2.80;2.60;;;;;;;;;;4264887;33;20057;-73
2023/04/22 10:04:59;;;;;;;7.25;3.00;;;;;;;;;;4259530;33;20027;-71
2023/04/22 10:07:30;;;;;;;11.90;2.50;;;;;;;;;;4244875;33;20038;-72
2023/04/22 10:09:56;;;;;;;3.17;2.65;;;;;;;;;;4243005;33;20378;-72
2023/04/22 10:12:22;;;;;;;7.47;2.58;;;;;;;;;;4230430;33;20095;-71
2023/04/22 10:14:55;;;;;;;7.20;2.85;;;;;;;;;;4272474;33;20076;-72
2023/04/22 10:17:21;;;;;;;9.52;3.12;;;;;;;;;;4265906;33;20077;-71
2023/04/22 10:19:47;;;;;;;8.88;2.50;;;;;;;;;;4267258;33;20059;-71
2023/04/22 10:22:14;;;;;;;5.03;2.80;;;;;;;;;;4260561;33;20091;-77
2023/04/22 10:24:40;;;;;;;12.05;3.28;;;;;;;;;;4278131;33;20099;-71
2023/04/22 10:27:09;;;;;;;3.03;2.30;;;;;;;;;;4280069;33;20063;-70
2023/04/22 10:29:37;;;;;;;6.22;2.37;;;;;;;;;;4278191;33;20041;-70
2023/04/22 10:32:05;;;;;;;5.50;2.42;;;;;;;;;;4276675;33;20049;-73
2023/04/22 10:34:31;;;;;;;4.50;2.70;;;;;;;;;;4279318;33;20375;-72
2023/04/22 10:37:05;;;;;;;4.05;2.50;;;;;;;;;;4280949;33;20049;-72
2023/04/22 10:39:31;;;;;;;5.93;3.08;;;;;;;;;;4252658;33;20453;-74
2023/04/22 10:42:08;;;;;;;8.82;2.87;;;;;;;;;;4250730;33;20071;-78
2023/04/22 10:44:51;;;;;;;4.25;2.50;;;;;;;;;;4251325;33;20081;-70
2023/04/22 10:47:25;;;;;;;11.48;3.37;;;;;;;;;;4250007;33;20462;-71
2023/04/22 10:49:51;;;;;;;4.12;2.95;;;;;;;;;;4249525;33;20500;-70
2023/04/22 10:52:28;;;;;;;5.93;3.05;;;;;;;;;;4251253;33;20374;-71
2023/04/22 10:54:55;;;;;;;7.37;2.95;;;;;;;;;;4250765;33;20421;-71
2023/04/22 10:57:21;;;;;;;8.80;3.30;;;;;;;;;;4248846;33;20058;-75
2023/04/22 10:59:48;;;;;;;14.23;3.45;;;;;;;;;;4245641;33;20045;-72
2023/04/22 11:02:15;;;;;;;3.85;3.00;;;;;;;;;;4391846;28;20559;-71
2023/04/22 11:04:41;;;;;;;4.00;3.10;;;;;;;;;;4242834;33;20206;-71
2023/04/22 11:07:21;;;;;;;6.07;2.70;;;;;;;;;;4232049;33;20054;-71
2023/04/22 11:09:57;;;;;;;4.57;2.90;;;;;;;;;;4238418;33;20045;-72
2023/04/22 11:12:38;;;;;;;3.90;2.95;;;;;;;;;;4272641;33;20963;-73
2023/04/22 11:15:05;;;;;;;9.93;3.05;;;;;;;;;;4274599;33;20089;-72
2023/04/22 11:17:31;;;;;;;7.82;2.92;;;;;;;;;;4274880;33;20477;-71
2023/04/22 11:19:57;;;;;;;6.50;3.45;;;;;;;;;;4279913;33;20069;-77
2023/04/22 11:22:24;;;;;;;4.40;3.60;;;;;;;;;;4280080;33;20068;-72
2023/04/22 11:24:57;;;;;;;4.57;3.45;;;;;;;;;;4264645;33;20037;-71
2023/04/22 11:27:29;;;;;;;11.07;3.37;;;;;;;;;;4253068;33;20162;-71
2023/04/22 11:30:33;;;;;;;6.62;3.72;;;;;;;;;;4250596;33;20914;-75
2023/04/22 11:32:59;;;;;;;4.62;3.20;;;;;;;;;;4206979;34;20059;-72
2023/04/22 11:35:27;;;;;;;11.90;2.72;;;;;;;;;;4216776;33;20086;-77
2023/04/22 11:37:55;;;;;;;6.57;2.65;;;;;;;;;;4216432;34;20077;-71
2023/04/22 11:40:29;;;;;;;3.78;3.00;;;;;;;;;;4210898;34;20199;-71
2023/04/22 11:42:56;;;;;;;3.90;2.55;;;;;;;;;;4219899;33;20160;-71
2023/04/22 11:45:22;;;;;;;6.72;3.53;;;;;;;;;;4218995;33;20062;-74
2023/04/22 11:47:50;;;;;;;14.30;2.87;;;;;;;;;;4218068;34;20499;-70
2023/04/22 11:50:16;;;;;;;4.82;3.10;;;;;;;;;;4222556;33;20046;-70
2023/04/22 11:53:03;;;;;;;3.47;3.03;;;;;;;;;;4188672;34;20039;-70
2023/04/22 11:55:30;;;;;;;4.25;3.20;;;;;;;;;;4191444;34;20043;-70
2023/04/22 11:57:58;;;;;;;20.55;15.18;;;;;;;;;;4203234;34;20569;-71
2023/04/22 12:00:27;;;;;;;7.32;3.40;;;;;;;;;;4204807;34;20081;-72
2023/04/22 12:02:59;;;;;;;4.72;3.55;;;;;;;;;;4213257;33;20066;-72
2023/04/22 12:05:32;;;;;;;3.75;3.40;;;;;;;;;;4250651;33;20097;-72
2023/04/22 12:08:00;;;;;;;4.80;2.87;;;;;;;;;;4247467;33;20108;-72
2023/04/22 12:10:26;;;;;;;6.47;2.75;;;;;;;;;;4249337;33;20053;-72
2023/04/22 12:12:53;;;;;;;4.87;3.00;;;;;;;;;;4248952;33;20175;-72
2023/04/22 12:15:19;;;;;;;8.18;3.12;;;;;;;;;;4240968;33;20045;-78
2023/04/22 12:17:48;;;;;;;14.93;3.50;;;;;;;;;;4246918;33;20667;-71
2023/04/22 12:20:14;;;;;;;11.38;3.03;;;;;;;;;;4245682;33;20080;-71
2023/04/22 12:22:41;;;;;;;14.38;3.65;;;;;;;;;;4251308;33;20504;-73
2023/04/22 12:25:07;;;;;;;5.40;3.12;;;;;;;;;;4260860;33;20127;-74
2023/04/22 12:27:34;;;;;;;4.90;3.42;;;;;;;;;;4259260;33;20054;-76
2023/04/22 12:30:02;;;;;;;15.45;4.25;;;;;;;;;;4254878;33;20080;-72
2023/04/22 12:32:28;;;;;;;5.07;3.10;;;;;;;;;;4257174;33;20053;-74
2023/04/22 12:34:55;;;;;;;5.18;3.45;;;;;;;;;;4261610;33;20554;-71
2023/04/22 12:37:21;;;;;;;9.63;4.05;;;;;;;;;;4257204;33;20056;-71
2023/04/22 12:39:47;;;;;;;8.70;3.47;;;;;;;;;;4276836;33;20102;-75
2023/04/22 12:42:13;;;;;;;8.07;3.30;;;;;;;;;;4283025;33;20102;-74
2023/04/22 12:44:40;;;;;;;7.90;4.93;;;;;;;;;;4282929;33;20049;-72
2023/04/22 12:47:08;;;;;;;5.32;3.08;;;;;;;;;;4285122;33;20058;-72
2023/04/22 12:49:35;;;;;;;3.17;2.67;;;;;;;;;;4285862;33;20337;-73
2023/04/22 12:52:02;;;;;;;4.10;2.90;;;;;;;;;;4285880;33;20127;-71
2023/04/22 12:54:34;;;;;;;4.10;3.12;;;;;;;;;;4283585;33;20030;-71
2023/04/22 12:57:01;;;;;;;4.53;2.87;;;;;;;;;;4285955;33;20064;-71
2023/04/22 12:59:27;;;;;;;5.03;3.40;;;;;;;;;;4287455;33;20593;-72
2023/04/22 13:01:54;;;;;;;4.82;3.47;;;;;;;;;;4284228;33;20066;-73
2023/04/22 13:04:20;;;;;;;7.37;3.50;;;;;;;;;;4284621;33;20062;-72
2023/04/22 13:06:49;;;;;;;3.53;2.80;;;;;;;;;;4285016;33;20191;-72
2023/04/22 13:09:16;;;;;;;10.63;4.15;;;;;;;;;;4285762;33;20544;-70
2023/04/22 13:11:42;;;;;;;4.72;3.20;;;;;;;;;;4284637;33;20057;-71
2023/04/22 13:14:09;;;;;;;4.20;3.20;;;;;;;;;;4277609;33;20585;-77
2023/04/22 13:16:35;;;;;;;3.67;3.08;;;;;;;;;;4291794;33;20052;-71
2023/04/22 13:19:01;;;;;;;3.42;2.97;;;;;;;;;;4290118;33;20083;-73
2023/04/22 13:21:28;;;;;;;8.18;3.87;;;;;;;;;;4289171;33;20066;-71
2023/04/22 13:23:54;;;;;;;4.95;3.78;;;;;;;;;;4291256;33;20419;-72
2023/04/22 13:26:21;;;;;;;5.05;2.90;;;;;;;;;;4287756;33;20049;-71
2023/04/22 13:28:47;;;;;;;3.42;3.12;;;;;;;;;;4290333;33;20096;-73
2023/04/22 13:31:13;;;;;;;8.43;3.33;;;;;;;;;;4290750;33;20049;-72
2023/04/22 13:33:40;;;;;;;4.05;3.08;;;;;;;;;;4274207;33;20651;-72
2023/04/22 13:36:06;;;;;;;3.58;3.33;;;;;;;;;;4264456;33;20056;-70
2023/04/22 13:38:32;;;;;;;5.55;2.70;;;;;;;;;;4264241;33;20117;-73
2023/04/22 13:41:00;;;;;;;3.45;3.05;;;;;;;;;;4270069;33;20067;-72
2023/04/22 13:43:27;;;;;;;11.50;3.10;;;;;;;;;;4268466;33;20061;-72
2023/04/22 13:45:54;;;;;;;7.80;3.53;;;;;;;;;;4266784;33;20080;-73
2023/04/22 13:48:20;;;;;;;5.97;3.55;;;;;;;;;;4281179;33;20071;-79
2023/04/22 13:50:46;;;;;;;13.98;3.35;;;;;;;;;;4282954;33;20092;-72
2023/04/22 13:53:13;;;;;;;7.12;3.37;;;;;;;;;;4256086;33;20113;-72
2023/04/22 13:55:40;;;;;;;5.37;3.80;;;;;;;;;;4246482;33;20050;-71
2023/04/22 13:58:07;;;;;;;4.65;3.37;;;;;;;;;;4248510;33;20098;-72
2023/04/22 14:00:33;;;;;;;5.07;3.72;;;;;;;;;;4261333;33;20071;-71
2023/04/22 14:03:00;;;;;;;7.97;3.10;;;;;;;;;;4262976;33;20139;-72
2023/04/22 14:05:26;;;;;;;5.00;3.12;;;;;;;;;;4263856;33;20119;-72
2023/04/22 14:07:53;;;;;;;6.07;3.67;;;;;;;;;;4263118;33;20034;-71
2023/04/22 14:10:20;;;;;;;6.25;2.85;;;;;;;;;;4264860;33;20071;-77
2023/04/22 14:12:47;;;;;;;8.15;3.17;;;;;;;;;;4264916;33;20033;-71
2023/04/22 14:15:13;;;;;;;3.60;2.92;;;;;;;;;;4263412;33;20046;-73
2023/04/22 14:17:39;;;;;;;10.63;3.17;;;;;;;;;;4264321;33;20042;-71
2023/04/22 14:20:06;;;;;;;3.03;2.80;;;;;;;;;;4241704;33;20070;-70
2023/04/22 14:22:32;;;;;;;8.85;3.05;;;;;;;;;;4221859;33;20052;-76
2023/04/22 14:25:00;;;;;;;8.15;3.75;;;;;;;;;;4244019;33;20109;-71
2023/04/22 14:27:26;;;;;;;6.53;2.60;;;;;;;;;;4264584;33;20255;-71
2023/04/22 14:29:52;;;;;;;6.30;2.60;;;;;;;;;;4254692;33;20112;-70
2023/04/22 14:32:19;;;;;;;7.20;2.90;;;;;;;;;;4252230;33;20046;-73
2023/04/22 14:34:45;;;;;;;3.87;3.10;;;;;;;;;;4250924;33;20060;-72
2023/04/22 14:37:11;;;;;;;11.20;2.70;;;;;;;;;;4251092;33;20038;-71
2023/04/22 14:39:38;;;;;;;7.22;2.95;;;;;;;;;;4239235;33;20046;-73
2023/04/22 14:42:04;;;;;;;3.22;2.92;;;;;;;;;;4240198;33;20098;-74
2023/04/22 14:44:30;;;;;;;3.65;3.20;;;;;;;;;;4239218;33;20072;-72
2023/04/22 14:46:56;;;;;;;6.45;3.30;;;;;;;;;;4239188;33;20038;-74
2023/04/22 14:49:22;;;;;;;4.07;3.12;;;;;;;;;;4266963;33;20064;-69
2023/04/22 14:51:48;;;;;;;5.12;3.22;;;;;;;;;;4266072;33;20105;-69
2023/04/22 14:54:15;;;;;;;3.42;3.00;;;;;;;;;;4274918;33;20067;-72
2023/04/22 14:56:41;;;;;;;10.15;3.08;;;;;;;;;;4276208;33;20042;-69
2023/04/22 14:59:06;;;;;;;3.92;2.70;;;;;;;;;;4255964;33;20075;-75
2023/04/22 15:01:34;;;;;;;4.32;2.70;;;;;;;;;;4253206;33;20061;-68
2023/04/22 15:04:00;;;;;;;13.50;3.00;;;;;;;;;;4270343;33;20030;-70
2023/04/22 15:06:27;;;;;;;8.35;6.62;;;;;;;;;;4253555;33;20077;-69
2023/04/22 15:08:54;;;;;;;3.20;2.65;;;;;;;;;;4249442;33;20067;-71
2023/04/22 15:11:21;;;;;;;4.28;2.87;;;;;;;;;;4262423;33;20094;-71
2023/04/22 15:13:47;;;;;;;5.53;2.47;;;;;;;;;;4274834;33;20100;-73
2023/04/22 15:16:13;;;;;;;6.25;2.53;;;;;;;;;;4270829;33;20055;-69
2023/04/22 15:18:39;;;;;;;3.22;2.47;;;;;;;;;;4268645;33;20517;-69
2023/04/22 15:21:09;;;;;;;5.07;2.28;;;;;;;;;;4270359;33;20058;-72
2023/04/22 15:23:35;;;;;;;4.62;3.12;;;;;;;;;;4271641;33;20076;-69
2023/04/22 15:26:01;;;;;;;6.07;2.80;;;;;;;;;;4271036;33;20080;-70
2023/04/22 15:28:27;;;;;;;10.48;2.58;;;;;;;;;;4270233;33;20499;-71
2023/04/22 15:30:53;;;;;;;3.40;2.50;;;;;;;;;;4270051;33;20064;-72
2023/04/22 15:33:20;;;;;;;5.80;2.53;;;;;;;;;;4270785;33;20034;-71
2023/04/22 15:35:48;;;;;;;3.60;2.58;;;;;;;;;;4254765;33;20075;-70
2023/04/22 15:38:15;;;;;;;7.10;2.53;;;;;;;;;;4280038;33;20029;-69
2023/04/22 15:40:41;;;;;;;3.70;2.83;;;;;;;;;;4287934;33;20440;-73
2023/04/22 15:43:07;;;;;;;9.65;2.70;;;;;;;;;;4293288;33;20056;-76
2023/04/22 15:45:34;;;;;;;3.47;2.53;;;;;;;;;;4283017;33;20379;-75
2023/04/22 15:48:00;;;;;;;3.33;2.40;;;;;;;;;;4285770;33;20416;-71
2023/04/22 15:50:26;;;;;;;14.80;2.70;;;;;;;;;;4276270;33;20089;-70
2023/04/22 15:52:55;;;;;;;12.25;2.37;;;;;;;;;;4278030;33;20083;-70
2023/04/22 15:55:21;;;;;;;2.40;2.30;;;;;;;;;;4277434;33;20072;-77
2023/04/22 15:57:47;;;;;;;2.90;1.87;;;;;;;;;;4262263;33;20456;-70
2023/04/22 16:00:14;;;;;;;9.02;2.58;;;;;;;;;;4260831;33;20066;-71
2023/04/22 16:02:40;;;;;;;3.15;2.87;;;;;;;;;;4261204;33;20060;-69
2023/04/22 16:05:07;;;;;;;7.03;2.45;;;;;;;;;;4266577;33;20576;-69
2023/04/22 16:07:33;;;;;;;4.18;2.95;;;;;;;;;;4265003;33;20046;-69
2023/04/22 16:09:59;;;;;;;6.90;2.95;;;;;;;;;;4261550;33;20097;-70
2023/04/22 16:12:25;;;;;;;2.92;2.62;;;;;;;;;;4256186;33;20072;-71
2023/04/22 16:14:52;;;;;;;3.78;2.42;;;;;;;;;;4259069;33;20420;-69
2023/04/22 16:17:18;;;;;;;2.85;2.58;;;;;;;;;;4261518;33;20037;-72
2023/04/22 16:19:45;;;;;;;6.68;2.55;;;;;;;;;;4240332;33;20061;-69
2023/04/22 16:22:12;;;;;;;5.82;2.25;;;;;;;;;;4245332;33;20181;-76
2023/04/22 16:24:38;;;;;;;2.95;2.42;;;;;;;;;;4245553;33;20116;-68
2023/04/22 16:27:05;;;;;;;4.85;2.25;;;;;;;;;;4245321;33;20440;-69
2023/04/22 16:29:31;;;;;;;3.83;3.40;;;;;;;;;;4229665;33;20064;-69
2023/04/22 16:31:58;;;;;;;3.92;2.67;;;;;;;;;;4223157;33;20035;-68
2023/04/22 16:34:26;;;;;;;6.28;2.28;;;;;;;;;;4238720;33;20047;-69
2023/04/22 16:36:52;;;;;;;3.20;2.33;;;;;;;;;;4220248;33;20054;-72
2023/04/22 16:39:18;;;;;;;5.25;2.53;;;;;;;;;;4221972;34;20042;-69